Time;durP1;ratioP1;P1;durP2;ratioP2;P2;SDS_P1;SDS_P2;PMS_P1;PMS_P2;Temp;Humidity;BMP_temperature;BMP_pressure;BME280_temperature;BME280_humidity;BME280_pressure;Samples;Min_cycle;Max_cycle;Signal;HPM_P1;HPM_P2
2024/03/13 00:01:52;;;;;;;15.65;7.45;;;9.20;99.90;;;;;;5088250;28;20031;-70
2024/03/13 00:04:19;;;;;;;14.43;7.97;;;9.20;99.90;;;;;;5088351;28;20077;-70
2024/03/13 00:06:45;;;;;;;;;;;9.20;99.90;;;;;;5088748;28;20058;-70
2024/03/13 00:09:12;;;;;;;17.02;8.43;;;9.20;99.90;;;;;;5087559;28;19908;-70
2024/03/13 00:11:40;;;;;;;17.80;8.23;;;9.20;99.90;;;;;;5087426;28;20116;-72
2024/03/13 00:14:06;;;;;;;11.85;7.38;;;9.10;99.90;;;;;;5088012;28;20054;-71
2024/03/13 00:16:32;;;;;;;16.60;8.32;;;9.10;99.90;;;;;;5087995;28;20024;-70
2024/03/13 00:18:58;;;;;;;17.07;8.30;;;9.10;99.90;;;;;;5087912;28;20051;-72
2024/03/13 00:21:27;;;;;;;18.23;8.75;;;9.20;99.90;;;;;;5080844;28;20043;-72
2024/03/13 00:23:52;;;;;;;14.52;7.45;;;9.20;99.90;;;;;;5075043;28;20110;-71
2024/03/13 00:26:21;;;;;;;14.60;8.37;;;9.20;99.90;;;;;;5074241;28;20491;-70
2024/03/13 00:28:50;;;;;;;17.52;8.82;;;9.20;99.90;;;;;;5075655;28;20746;-70
2024/03/13 00:31:18;;;;;;;19.50;8.35;;;9.10;99.90;;;;;;5076309;28;20036;-70
2024/03/13 00:33:44;;;;;;;15.95;9.88;;;9.10;99.90;;;;;;5077543;28;20510;-70
2024/03/13 00:36:10;;;;;;;17.77;8.05;;;9.00;99.90;;;;;;5074291;28;20045;-71
2024/03/13 00:38:36;;;;;;;16.77;7.82;;;9.00;99.90;;;;;;5075831;28;20124;-71
2024/03/13 00:41:03;;;;;;;23.42;8.60;;;9.00;99.90;;;;;;5079499;28;20090;-70
2024/03/13 00:43:30;;;;;;;12.90;8.07;;;9.00;99.90;;;;;;5074844;28;20032;-70
2024/03/13 00:45:56;;;;;;;17.92;8.68;;;9.10;99.90;;;;;;5074332;28;20036;-70
2024/03/13 00:48:22;;;;;;;15.10;8.63;;;9.10;99.90;;;;;;5074395;28;20028;-70
2024/03/13 00:50:48;;;;;;;22.60;9.63;;;9.10;99.90;;;;;;5082451;28;20032;-71
2024/03/13 00:53:14;;;;;;;19.88;10.30;;;9.20;99.90;;;;;;5076693;28;20020;-71
2024/03/13 00:55:40;;;;;;;16.40;9.10;;;9.10;99.90;;;;;;5090558;28;20039;-71
2024/03/13 00:58:08;;;;;;;15.05;9.48;;;9.10;99.90;;;;;;5083361;28;20796;-71
2024/03/13 01:00:35;;;;;;;13.98;8.02;;;9.10;99.90;;;;;;5076003;28;20065;-71
2024/03/13 01:03:02;;;;;;;12.25;8.15;;;9.00;99.90;;;;;;5073806;28;20719;-72
2024/03/13 01:05:28;;;;;;;23.15;9.18;;;9.00;99.90;;;;;;5079942;28;20039;-71
2024/03/13 01:07:55;;;;;;;19.37;9.50;;;9.00;99.90;;;;;;5072895;28;20127;-71
2024/03/13 01:10:24;;;;;;;17.73;8.93;;;9.10;99.90;;;;;;5073762;28;20029;-71
2024/03/13 01:12:50;;;;;;;19.67;9.30;;;9.10;99.90;;;;;;5075376;28;20044;-72
2024/03/13 01:15:16;;;;;;;19.08;9.63;;;9.10;99.90;;;;;;5075926;28;20130;-72
2024/03/13 01:17:42;;;;;;;15.75;9.02;;;9.00;99.90;;;;;;5075923;28;20117;-72
2024/03/13 01:20:09;;;;;;;14.77;8.57;;;9.00;99.90;;;;;;5064311;28;20497;-73
2024/03/13 01:22:35;;;;;;;15.65;9.00;;;9.00;99.90;;;;;;5077520;28;20028;-73
2024/03/13 01:25:00;;;;;;;18.10;8.70;;;9.00;99.90;;;;;;5075798;28;20039;-72
2024/03/13 01:27:28;;;;;;;17.73;9.57;;;9.00;99.90;;;;;;5074803;28;20286;-72
2024/03/13 01:29:54;;;;;;;19.50;8.55;;;9.10;99.90;;;;;;5079661;28;20539;-72
2024/03/13 01:32:20;;;;;;;15.87;8.50;;;9.10;99.90;;;;;;5072834;28;20051;-71
2024/03/13 01:34:47;;;;;;;23.45;8.25;;;9.10;99.90;;;;;;5075990;28;20025;-71
2024/03/13 01:39:56;;;;;;;16.08;9.85;;;8.90;99.90;;;;;;5074855;28;20590;-71
2024/03/13 01:54:50;;;;;;;15.68;9.02;;;8.90;99.90;;;;;;5073800;28;20043;-72
2024/03/13 01:56:30;;;;;;;35.40;10.07;;;8.80;99.90;;;;;;5080584;28;20411;-71
2024/03/13 02:04:24;;;;;;;20.98;10.82;;;8.80;99.90;;;;;;5078648;28;20043;-72
2024/03/13 02:06:50;;;;;;;16.98;10.70;;;8.80;99.90;;;;;;5078030;28;20036;-71
2024/03/13 02:09:16;;;;;;;22.58;10.80;;;8.80;99.90;;;;;;5078350;28;20544;-70
2024/03/13 02:11:42;;;;;;;17.23;9.37;;;8.80;99.90;;;;;;5080139;28;20040;-70
2024/03/13 02:14:07;;;;;;;17.38;10.38;;;8.70;99.90;;;;;;5076448;28;20527;-72
2024/03/13 02:16:34;;;;;;;19.00;10.73;;;8.70;99.90;;;;;;5079014;28;20895;-71
2024/03/13 02:19:01;;;;;;;20.00;10.77;;;8.70;99.90;;;;;;5084917;28;20472;-71
2024/03/13 02:21:27;;;;;;;24.60;11.68;;;8.60;99.90;;;;;;5084703;28;20776;-71
2024/03/13 02:23:56;;;;;;;19.40;10.75;;;8.60;99.90;;;;;;5076836;28;20039;-71
2024/03/13 02:26:22;;;;;;;20.92;11.40;;;8.70;99.90;;;;;;5076734;28;20044;-71
2024/03/13 02:28:48;;;;;;;18.52;11.38;;;8.70;99.90;;;;;;5078334;28;20423;-71
2024/03/13 02:31:13;;;;;;;22.07;11.83;;;8.60;99.90;;;;;;5083333;28;20032;-71
2024/03/13 02:33:39;;;;;;;21.90;11.17;;;8.60;99.90;;;;;;5079974;28;20813;-71
2024/03/13 02:36:05;;;;;;;23.37;11.57;;;8.60;99.90;;;;;;5081895;28;20035;-71
2024/03/13 02:38:31;;;;;;;16.58;11.38;;;8.60;99.90;;;;;;5076040;28;20094;-72
2024/03/13 02:40:57;;;;;;;16.80;10.53;;;8.60;99.90;;;;;;5085288;28;20097;-70
2024/03/13 02:43:23;;;;;;;22.20;10.37;;;8.70;99.90;;;;;;5076788;28;20369;-71
2024/03/13 02:45:48;;;;;;;20.65;10.35;;;8.70;99.90;;;;;;5077601;28;20835;-71
2024/03/13 02:48:15;;;;;;;19.53;10.43;;;8.70;99.90;;;;;;5078389;28;20036;-71
2024/03/13 02:50:42;;;;;;;16.42;9.98;;;8.70;99.90;;;;;;5077906;28;20105;-70
2024/03/13 02:53:08;;;;;;;18.30;10.32;;;8.70;99.90;;;;;;5084247;28;20039;-71
2024/03/13 02:55:34;;;;;;;21.83;10.73;;;8.70;99.90;;;;;;5080629;28;20028;-73
2024/03/13 02:58:01;;;;;;;15.38;9.45;;;8.70;99.90;;;;;;5081301;28;20024;-73
2024/03/13 03:00:27;;;;;;;17.00;10.20;;;8.70;99.90;;;;;;5078238;28;20029;-72
2024/03/13 03:02:54;;;;;;;18.90;10.38;;;8.70;99.90;;;;;;5094268;28;20111;-72
2024/03/13 03:05:20;;;;;;;17.63;10.65;;;8.70;99.90;;;;;;5080652;28;20048;-71
2024/03/13 03:07:46;;;;;;;18.92;9.45;;;8.70;99.90;;;;;;5079918;28;20052;-71
2024/03/13 03:10:12;;;;;;;21.17;9.77;;;8.70;99.90;;;;;;5078913;28;20125;-71
2024/03/13 03:12:40;;;;;;;21.02;9.93;;;8.70;99.90;;;;;;5094037;28;20282;-72
2024/03/13 03:15:06;;;;;;;21.27;10.50;;;8.70;99.90;;;;;;5078142;28;20388;-70
2024/03/13 03:17:32;;;;;;;12.50;8.75;;;8.80;99.90;;;;;;5077645;28;20137;-70
2024/03/13 03:19:58;;;;;;;15.10;9.23;;;8.80;99.90;;;;;;5074971;28;20520;-71
2024/03/13 03:22:24;;;;;;;;;;;8.80;99.90;;;;;;5079351;28;20412;-71
2024/03/13 03:24:50;;;;;;;26.08;9.30;;;8.70;99.90;;;;;;5077903;28;19912;-72
2024/03/13 03:27:15;;;;;;;18.63;10.03;;;8.70;99.90;;;;;;5078201;28;20076;-73
2024/03/13 03:29:41;;;;;;;16.83;10.17;;;8.70;99.90;;;;;;5078066;28;20056;-70
2024/03/13 03:32:07;;;;;;;17.07;9.10;;;8.70;99.90;;;;;;5078438;28;20043;-70
2024/03/13 03:34:32;;;;;;;18.42;9.52;;;8.70;99.90;;;;;;5069344;28;20031;-70
2024/03/13 03:36:58;;;;;;;16.58;9.70;;;8.60;99.90;;;;;;5074270;28;20024;-71
2024/03/13 03:39:27;;;;;;;16.02;9.82;;;8.60;99.90;;;;;;5077723;28;20024;-70
2024/03/13 03:41:52;;;;;;;23.55;10.82;;;8.70;99.90;;;;;;5077281;28;20047;-70
2024/03/13 03:44:18;;;;;;;20.40;10.17;;;8.60;99.90;;;;;;5079466;28;20033;-70
2024/03/13 03:46:44;;;;;;;18.90;9.73;;;8.60;99.90;;;;;;5077334;28;20036;-70
2024/03/13 03:49:10;;;;;;;19.50;9.60;;;8.60;99.90;;;;;;5078954;28;20069;-71
2024/03/13 03:51:36;;;;;;;16.30;10.38;;;8.60;99.90;;;;;;5072783;28;20115;-72
2024/03/13 03:54:02;;;;;;;18.55;9.90;;;8.60;99.90;;;;;;5084274;28;20046;-73
2024/03/13 03:56:28;;;;;;;16.08;10.05;;;8.70;99.90;;;;;;5075084;28;20066;-72
2024/03/13 03:58:54;;;;;;;20.87;10.27;;;8.70;99.90;;;;;;5077236;28;20454;-70
2024/03/13 04:01:26;;;;;;;21.27;9.68;;;8.70;99.90;;;;;;5077020;28;20358;-70
2024/03/13 04:03:52;;;;;;;15.85;9.52;;;8.70;99.90;;;;;;5077904;28;20395;-70
2024/03/13 04:06:17;;;;;;;17.67;10.18;;;8.70;99.90;;;;;;5076825;28;20047;-70
2024/03/13 04:08:47;;;;;;;20.37;9.63;;;8.60;99.90;;;;;;5075256;28;20035;-70
2024/03/13 04:11:13;;;;;;;21.77;9.25;;;8.70;99.90;;;;;;5090921;28;20033;-71
2024/03/13 04:13:39;;;;;;;18.73;10.23;;;8.60;99.90;;;;;;5081368;28;20035;-71
2024/03/13 04:16:07;;;;;;;19.42;9.82;;;8.60;99.90;;;;;;5076929;28;20235;-70
2024/03/13 04:18:33;;;;;;;17.40;9.82;;;8.60;99.90;;;;;;5076512;28;20016;-70
2024/03/13 04:21:00;;;;;;;18.33;10.15;;;8.60;99.90;;;;;;5072132;28;20566;-70
2024/03/13 04:23:26;;;;;;;14.88;9.63;;;8.60;99.90;;;;;;5077504;28;20039;-72
2024/03/13 04:25:52;;;;;;;19.88;9.55;;;8.60;99.90;;;;;;5076452;28;20404;-72
2024/03/13 04:28:18;;;;;;;17.50;9.80;;;8.60;99.90;;;;;;5082640;28;20492;-73
2024/03/13 04:30:43;;;;;;;15.73;9.40;;;8.70;99.90;;;;;;5078987;28;20032;-72
2024/03/13 04:33:09;;;;;;;20.13;9.50;;;8.70;99.90;;;;;;5076888;28;20032;-72
2024/03/13 04:35:35;;;;;;;18.30;9.68;;;8.60;99.90;;;;;;5076187;28;20028;-72
2024/03/13 04:38:01;;;;;;;16.90;10.50;;;8.60;99.90;;;;;;5071045;28;20036;-71
2024/03/13 04:40:26;;;;;;;21.73;10.43;;;8.50;99.90;;;;;;5082728;28;20024;-70
2024/03/13 04:42:53;;;;;;;16.47;9.53;;;8.50;99.90;;;;;;5071438;28;20059;-70
2024/03/13 04:45:18;;;;;;;20.58;10.63;;;8.50;99.90;;;;;;5075041;28;20032;-70
2024/03/13 04:47:44;;;;;;;17.52;10.35;;;8.40;99.90;;;;;;5080638;28;20055;-70
2024/03/13 04:50:11;;;;;;;19.20;10.80;;;8.50;99.90;;;;;;5077690;28;20024;-71
2024/03/13 04:52:37;;;;;;;15.90;10.20;;;8.50;99.90;;;;;;5075311;28;20275;-71
2024/03/13 04:55:03;;;;;;;15.68;9.70;;;8.40;99.90;;;;;;5074914;28;20021;-70
2024/03/13 04:57:29;;;;;;;22.42;10.82;;;8.40;99.90;;;;;;5076615;28;20085;-71
2024/03/13 04:59:54;;;;;;;20.50;10.60;;;8.40;99.90;;;;;;5077775;28;20036;-70
2024/03/13 05:02:20;;;;;;;21.77;9.83;;;8.30;99.90;;;;;;5076356;28;20055;-70
2024/03/13 05:04:46;;;;;;;17.77;9.80;;;8.30;99.90;;;;;;5076840;28;20039;-71
2024/03/13 05:07:12;;;;;;;27.20;11.80;;;8.30;99.90;;;;;;5069468;28;20027;-72
2024/03/13 05:09:41;;;;;;;19.98;10.65;;;8.30;99.90;;;;;;5076548;28;20032;-71
2024/03/13 05:12:07;;;;;;;20.88;10.82;;;8.20;99.90;;;;;;5076243;28;20170;-71
2024/03/13 05:14:33;;;;;;;18.63;10.33;;;8.20;99.90;;;;;;5078475;28;20496;-70
2024/03/13 05:16:59;;;;;;;25.10;11.63;;;8.20;99.90;;;;;;5068919;28;20039;-70
2024/03/13 05:19:25;;;;;;;23.67;11.52;;;8.20;99.90;;;;;;5077281;28;20036;-71
2024/03/13 05:21:51;;;;;;;20.83;11.30;;;8.20;99.90;;;;;;5075257;28;20036;-70
2024/03/13 05:24:17;;;;;;;21.73;11.43;;;8.20;99.90;;;;;;5073302;28;20024;-71
2024/03/13 05:26:42;;;;;;;17.80;10.53;;;8.20;99.90;;;;;;5090170;28;20036;-70
2024/03/13 05:29:09;;;;;;;21.70;11.40;;;8.30;99.90;;;;;;5079346;28;20027;-70
2024/03/13 05:31:35;;;;;;;24.25;12.10;;;8.30;99.90;;;;;;5076415;28;20314;-71
2024/03/13 05:34:02;;;;;;;23.88;11.52;;;8.30;99.90;;;;;;5075700;28;20032;-71
2024/03/13 05:36:27;;;;;;;;;;;8.30;99.90;;;;;;5082742;28;20091;-72
2024/03/13 05:38:53;;;;;;;20.42;10.85;;;8.30;99.90;;;;;;5077235;28;20011;-70
2024/03/13 05:41:22;;;;;;;33.90;11.93;;;8.30;99.90;;;;;;5078223;28;20514;-71
2024/03/13 05:43:49;;;;;;;25.88;10.73;;;8.40;99.90;;;;;;5074857;28;20036;-71
2024/03/13 05:46:15;;;;;;;22.75;11.10;;;8.40;99.90;;;;;;5075988;28;20459;-72
2024/03/13 05:48:41;;;;;;;18.60;11.52;;;8.40;99.90;;;;;;5073621;28;20492;-72
2024/03/13 05:51:06;;;;;;;21.43;10.70;;;8.40;99.90;;;;;;5079944;28;20028;-72
2024/03/13 05:53:32;;;;;;;18.77;11.13;;;8.40;99.90;;;;;;5080934;28;20029;-72
2024/03/13 05:55:59;;;;;;;23.40;10.80;;;8.40;99.90;;;;;;5084430;28;20376;-71
2024/03/13 05:58:25;;;;;;;18.75;10.13;;;8.50;99.90;;;;;;5072858;28;20114;-72
2024/03/13 06:00:52;;;;;;;31.10;11.85;;;8.50;99.90;;;;;;5078267;28;20041;-73
2024/03/13 06:03:18;;;;;;;17.17;10.30;;;8.40;99.90;;;;;;5074705;28;20625;-72
2024/03/13 06:05:45;;;;;;;25.95;11.30;;;8.50;99.90;;;;;;5079470;28;20040;-73
2024/03/13 06:08:12;;;;;;;19.65;11.23;;;8.40;99.90;;;;;;5077264;28;20650;-73
2024/03/13 06:10:38;;;;;;;22.35;11.43;;;8.40;99.90;;;;;;5081565;28;20042;-72
2024/03/13 06:13:04;;;;;;;20.55;11.35;;;8.40;99.90;;;;;;5077120;28;20131;-73
2024/03/13 06:15:29;;;;;;;20.45;12.50;;;8.50;99.90;;;;;;5076320;28;20524;-71
2024/03/13 06:17:55;;;;;;;17.90;10.87;;;8.50;99.90;;;;;;5079868;28;20024;-71
2024/03/13 06:20:21;;;;;;;20.02;10.45;;;8.50;99.90;;;;;;5074063;28;20115;-71
2024/03/13 06:22:47;;;;;;;17.60;11.83;;;8.50;99.90;;;;;;5081779;28;20131;-71
2024/03/13 06:25:13;;;;;;;21.33;12.13;;;8.50;99.90;;;;;;5072936;28;20044;-71
2024/03/13 06:27:40;;;;;;;22.52;10.30;;;8.50;99.90;;;;;;5072959;28;20089;-71
2024/03/13 06:30:08;;;;;;;19.17;10.85;;;8.60;99.90;;;;;;5081426;28;20027;-70
2024/03/13 06:32:34;;;;;;;18.23;11.25;;;8.70;99.90;;;;;;5077020;28;20036;-71
2024/03/13 06:35:03;;;;;;;22.50;12.10;;;8.70;99.90;;;;;;5074653;28;20060;-70
2024/03/13 06:37:29;;;;;;;17.08;11.38;;;8.70;99.90;;;;;;5073946;28;20048;-71
2024/03/13 06:39:58;;;;;;;19.20;11.80;;;8.70;99.90;;;;;;5081112;28;20483;-70
2024/03/13 06:42:25;;;;;;;27.92;11.80;;;8.70;99.90;;;;;;5074672;28;20036;-71
2024/03/13 06:44:51;;;;;;;;;;;8.80;99.90;;;;;;5087391;28;20055;-71
2024/03/13 06:47:17;;;;;;;22.65;11.93;;;9.00;99.90;;;;;;5084217;28;19951;-71
2024/03/13 06:49:45;;;;;;;19.87;11.47;;;9.00;99.90;;;;;;5079917;28;20035;-70
2024/03/13 06:52:12;;;;;;;25.90;12.45;;;8.90;99.90;;;;;;5078978;28;20029;-69
2024/03/13 06:54:40;;;;;;;20.23;11.82;;;9.00;99.90;;;;;;5080429;28;20033;-70
2024/03/13 06:57:06;;;;;;;19.60;11.43;;;9.00;99.90;;;;;;5077582;28;20059;-70
2024/03/13 06:59:33;;;;;;;23.33;12.05;;;9.00;99.90;;;;;;5073314;28;20516;-69
2024/03/13 07:02:01;;;;;;;32.20;12.60;;;9.10;99.90;;;;;;5076177;28;20506;-69
2024/03/13 07:04:27;;;;;;;24.42;12.32;;;9.20;99.90;;;;;;5074910;28;20503;-70
2024/03/13 07:06:57;;;;;;;20.70;12.18;;;9.40;99.90;;;;;;5070022;28;20090;-74
2024/03/13 07:09:24;;;;;;;30.02;12.40;;;9.50;99.90;;;;;;5072622;28;20059;-70
2024/03/13 07:11:51;;;;;;;28.88;12.10;;;9.60;99.90;;;;;;5077130;28;20034;-71
2024/03/13 07:14:17;;;;;;;26.90;11.93;;;9.80;99.90;;;;;;5078512;28;20040;-70
2024/03/13 07:16:43;;;;;;;;;;;10.00;99.90;;;;;;5079589;28;20067;-71
2024/03/13 07:19:10;;;;;;;23.48;12.60;;;10.20;99.90;;;;;;5077174;28;19931;-71
2024/03/13 07:21:35;;;;;;;26.05;13.32;;;10.30;99.90;;;;;;5068766;28;20047;-70
2024/03/13 07:24:03;;;;;;;29.17;12.83;;;10.60;99.90;;;;;;5070544;28;20033;-70
2024/03/13 07:26:31;;;;;;;30.42;13.52;;;11.10;99.90;;;;;;5082030;28;20029;-70
2024/03/13 07:28:57;;;;;;;23.80;13.32;;;12.30;99.90;;;;;;5076424;28;20028;-71
2024/03/13 07:31:24;;;;;;;25.13;12.20;;;13.20;99.90;;;;;;5068830;28;20028;-70
2024/03/13 07:33:52;;;;;;;23.58;11.75;;;15.60;97.00;;;;;;5077677;28;20043;-68
2024/03/13 07:36:21;;;;;;;25.13;11.68;;;16.20;93.10;;;;;;5081155;28;20074;-69
2024/03/13 07:38:47;;;;;;;26.83;11.27;;;16.30;92.40;;;;;;5076600;28;20051;-69
2024/03/13 07:41:13;;;;;;;;;;;15.80;91.80;;;;;;5075897;28;20038;-70
2024/03/13 07:43:42;;;;;;;23.48;11.90;;;15.10;92.00;;;;;;5076665;28;19916;-72
2024/03/13 07:46:09;;;;;;;18.08;9.43;;;14.50;92.80;;;;;;5077733;28;20656;-71
2024/03/13 07:48:36;;;;;;;20.30;9.93;;;14.40;92.40;;;;;;5077286;28;20518;-73
2024/03/13 07:51:03;;;;;;;21.15;11.27;;;14.40;91.30;;;;;;5079518;28;20048;-72
2024/03/13 07:53:30;;;;;;;21.63;11.13;;;14.70;91.90;;;;;;5082157;28;20028;-68
2024/03/13 07:55:56;;;;;;;24.73;11.18;;;14.00;92.50;;;;;;5077141;28;20074;-70
2024/03/13 07:58:21;;;;;;;19.77;10.03;;;14.70;91.90;;;;;;5076952;28;20040;-70
2024/03/13 08:00:47;;;;;;;18.60;8.63;;;15.00;92.50;;;;;;5075818;28;20282;-70
2024/03/13 08:03:13;;;;;;;30.27;10.70;;;16.30;90.00;;;;;;5075747;28;20035;-70
2024/03/13 08:05:39;;;;;;;19.00;10.07;;;16.30;85.30;;;;;;5076692;28;20086;-71
2024/03/13 08:08:05;;;;;;;17.90;10.07;;;16.00;86.10;;;;;;5074132;28;20502;-71
2024/03/13 08:10:31;;;;;;;14.60;9.32;;;15.80;86.70;;;;;;5073114;28;20036;-71
2024/03/13 08:12:56;;;;;;;18.02;9.32;;;16.80;85.50;;;;;;5076642;28;20043;-72
2024/03/13 08:15:22;;;;;;;13.00;8.00;;;17.80;81.50;;;;;;5075429;28;20027;-71
2024/03/13 08:17:48;;;;;;;15.93;8.23;;;18.40;76.00;;;;;;5075814;28;20395;-70
2024/03/13 08:20:14;;;;;;;16.67;9.20;;;18.70;74.00;;;;;;5074789;28;20035;-70
2024/03/13 08:22:43;;;;;;;10.68;6.43;;;20.00;71.20;;;;;;5084495;28;20036;-71
2024/03/13 08:25:19;;;;;;;13.02;8.02;;;20.50;70.00;;;;;;5081296;28;20085;-71
2024/03/13 08:27:49;;;;;;;14.43;8.20;;;21.00;67.90;;;;;;5074682;28;20028;-71
2024/03/13 08:30:17;;;;;;;14.77;7.13;;;21.80;66.20;;;;;;5080085;28;20063;-70
2024/03/13 08:32:44;;;;;;;13.60;7.50;;;21.80;64.30;;;;;;5079187;28;20458;-70
2024/03/13 08:35:09;;;;;;;14.70;6.95;;;22.50;63.30;;;;;;5077671;28;20055;-71
2024/03/13 08:37:35;;;;;;;17.02;6.20;;;22.90;61.90;;;;;;5081275;28;20078;-71
2024/03/13 08:40:07;;;;;;;12.20;5.80;;;22.90;62.50;;;;;;5079899;28;20498;-70
2024/03/13 08:42:34;;;;;;;16.77;6.35;;;23.40;60.00;;;;;;5075468;28;20079;-71
2024/03/13 08:45:01;;;;;;;8.43;5.60;;;23.00;62.70;;;;;;5080024;28;20527;-70
2024/03/13 08:47:29;;;;;;;9.50;6.40;;;23.30;61.20;;;;;;5076344;28;20494;-72
2024/03/13 08:49:55;;;;;;;9.00;5.53;;;22.80;62.30;;;;;;5079954;28;20060;-70
2024/03/13 08:52:21;;;;;;;12.82;6.07;;;22.60;62.00;;;;;;5083259;28;20543;-69
2024/03/13 08:54:48;;;;;;;12.15;5.97;;;23.20;61.50;;;;;;5078152;28;20086;-72
2024/03/13 08:57:13;;;;;;;;;;;23.80;60.80;;;;;;5077112;28;20053;-73
2024/03/13 08:59:41;;;;;;;9.25;5.53;;;23.30;61.50;;;;;;5070942;28;19912;-71
2024/03/13 09:02:08;;;;;;;12.48;5.35;;;23.30;61.90;;;;;;5077707;28;20024;-71
2024/03/13 09:04:34;;;;;;;10.57;4.72;;;23.10;61.80;;;;;;5081669;28;20035;-72
2024/03/13 09:07:00;;;;;;;10.68;5.18;;;23.40;60.40;;;;;;5074640;28;20054;-72
2024/03/13 09:09:27;;;;;;;;;;;23.80;59.00;;;;;;5079700;28;20526;-72
2024/03/13 09:11:52;;;;;;;9.02;5.15;;;23.20;62.40;;;;;;5075328;28;20371;-72
2024/03/13 09:14:18;;;;;;;9.98;5.57;;;22.40;63.10;;;;;;5075722;28;20028;-72
2024/03/13 09:16:43;;;;;;;12.25;5.82;;;22.80;64.00;;;;;;5077485;28;20400;-72
2024/03/13 09:19:10;;;;;;;7.38;5.10;;;24.30;60.40;;;;;;5067717;28;20039;-71
2024/03/13 09:21:36;;;;;;;11.10;4.97;;;24.20;60.70;;;;;;5075596;28;20106;-73
2024/03/13 09:24:01;;;;;;;7.72;3.88;;;23.70;60.80;;;;;;5071745;28;20029;-72
2024/03/13 09:26:27;;;;;;;9.48;4.28;;;22.90;62.80;;;;;;5072531;28;20093;-73
2024/03/13 09:28:53;;;;;;;;;;;22.60;64.30;;;;;;5080708;28;20051;-73
2024/03/13 09:31:19;;;;;;;10.45;5.30;;;19.90;69.80;;;;;;5076202;28;19931;-69
2024/03/13 09:33:45;;;;;;;10.27;4.78;;;22.30;67.60;;;;;;5074490;28;20032;-71
2024/03/13 09:36:12;;;;;;;13.77;5.10;;;22.20;65.70;;;;;;5074172;28;20087;-72
2024/03/13 09:38:40;;;;;;;10.73;4.65;;;20.20;69.50;;;;;;5075863;28;20095;-73
2024/03/13 09:41:05;;;;;;;8.18;4.20;;;21.60;67.90;;;;;;5075700;28;20052;-71
2024/03/13 09:43:31;;;;;;;8.13;4.60;;;18.70;72.60;;;;;;5078275;28;20024;-72
2024/03/13 09:45:58;;;;;;;9.90;4.72;;;17.10;78.00;;;;;;5077690;28;20036;-71
2024/03/13 09:48:25;;;;;;;7.60;4.55;;;16.50;81.20;;;;;;5078187;28;20124;-71
2024/03/13 09:50:53;;;;;;;7.00;4.00;;;16.30;83.60;;;;;;5068575;28;20040;-71
2024/03/13 09:53:21;;;;;;;7.68;3.95;;;16.40;82.60;;;;;;5082267;28;20516;-71
2024/03/13 09:55:47;;;;;;;10.80;3.15;;;16.50;83.30;;;;;;5081351;28;20462;-71
2024/03/13 09:58:15;;;;;;;6.95;2.42;;;16.00;84.80;;;;;;5074995;28;20024;-71
2024/03/13 10:00:41;;;;;;;7.40;2.33;;;16.10;86.60;;;;;;5073189;28;20404;-71
2024/03/13 10:03:21;;;;;;;9.65;3.03;;;15.90;87.20;;;;;;5083547;28;20099;-71
2024/03/13 10:05:56;;;;;;;6.60;2.50;;;15.70;87.70;;;;;;5076594;28;20044;-71
2024/03/13 10:08:23;;;;;;;6.93;2.25;;;15.60;87.50;;;;;;5074028;28;20366;-71
2024/03/13 10:10:50;;;;;;;7.38;1.95;;;16.20;87.40;;;;;;5068099;28;20036;-71
2024/03/13 10:13:17;;;;;;;7.15;2.22;;;15.90;87.90;;;;;;5082488;28;20889;-71
2024/03/13 10:15:45;;;;;;;9.63;2.22;;;15.60;88.70;;;;;;5080050;28;20338;-71
2024/03/13 10:18:18;;;;;;;5.13;1.80;;;16.70;85.10;;;;;;5079948;28;20074;-72
2024/03/13 10:21:06;;;;;;;6.07;1.90;;;17.30;82.70;;;;;;5084887;28;20499;-71
2024/03/13 10:23:34;;;;;;;4.65;1.73;;;19.20;79.20;;;;;;5082763;28;20122;-71
2024/03/13 10:26:00;;;;;;;7.45;2.25;;;19.60;77.10;;;;;;5078776;28;20122;-71
2024/03/13 10:28:26;;;;;;;6.13;1.85;;;18.50;79.30;;;;;;5078023;28;20024;-72
2024/03/13 10:30:57;;;;;;;4.55;2.35;;;18.10;80.20;;;;;;5076898;28;20081;-72
2024/03/13 10:33:23;;;;;;;8.50;2.83;;;19.00;77.50;;;;;;5080684;28;20028;-72
2024/03/13 10:35:49;;;;;;;4.43;2.10;;;18.40;77.40;;;;;;5086800;28;20040;-71
2024/03/13 10:38:15;;;;;;;7.75;2.40;;;19.70;73.60;;;;;;5079338;28;20104;-71
2024/03/13 10:40:41;;;;;;;5.05;1.70;;;20.00;74.90;;;;;;5076692;28;20116;-71
2024/03/13 10:43:10;;;;;;;8.25;2.70;;;18.20;77.60;;;;;;5082510;28;20054;-71
2024/03/13 10:45:39;;;;;;;8.07;2.00;;;17.50;80.40;;;;;;5078236;28;20135;-71
2024/03/13 10:48:11;;;;;;;5.50;2.33;;;17.00;82.30;;;;;;5078263;28;20068;-72
2024/03/13 10:50:37;;;;;;;4.80;2.03;;;16.70;83.50;;;;;;5070665;28;20454;-71
2024/03/13 10:53:06;;;;;;;6.05;2.10;;;16.60;85.00;;;;;;5085626;28;20023;-71
2024/03/13 10:55:32;;;;;;;7.70;2.67;;;18.40;81.00;;;;;;5086039;28;20047;-71
2024/03/13 10:57:58;;;;;;;4.90;1.85;;;18.10;81.40;;;;;;5081553;28;20082;-71
2024/03/13 11:00:28;;;;;;;;;;;17.10;82.90;;;;;;5079728;28;20028;-71
2024/03/13 11:02:54;;;;;;;6.30;1.90;;;16.70;83.90;;;;;;5075929;28;19915;-70
2024/03/13 11:05:21;;;;;;;9.40;2.60;;;16.70;84.10;;;;;;5077459;28;20036;-70
2024/03/13 11:07:47;;;;;;;7.40;2.25;;;16.50;85.50;;;;;;5077443;28;20131;-69
2024/03/13 11:10:15;;;;;;;5.90;2.20;;;16.40;84.90;;;;;;5077004;28;20107;-69
2024/03/13 11:12:50;;;;;;;8.00;2.05;;;16.70;85.00;;;;;;5077766;28;20036;-70
2024/03/13 11:15:23;;;;;;;7.32;2.40;;;17.50;83.50;;;;;;5068604;28;20040;-70
2024/03/13 11:17:56;;;;;;;10.00;1.95;;;17.40;84.10;;;;;;5081389;28;20024;-70
2024/03/13 11:20:23;;;;;;;7.78;2.65;;;17.30;81.90;;;;;;5069142;28;20029;-71
2024/03/13 11:23:05;;;;;;;6.57;2.38;;;16.40;84.60;;;;;;5073497;28;20035;-73
2024/03/13 11:25:33;;;;;;;5.45;2.58;;;16.20;87.30;;;;;;5086470;28;20033;-72
2024/03/13 11:28:02;;;;;;;8.80;2.13;;;17.20;84.70;;;;;;5076770;28;20032;-73
2024/03/13 11:30:28;;;;;;;8.73;2.40;;;17.00;84.30;;;;;;5077357;28;20028;-73
2024/03/13 11:32:58;;;;;;;;;;;16.70;86.10;;;;;;5080470;28;20024;-72
2024/03/13 11:35:26;;;;;;;5.85;1.60;;;16.60;85.80;;;;;;5076403;28;19913;-72
2024/03/13 11:37:57;;;;;;;6.82;1.73;;;16.50;85.80;;;;;;5072929;28;20127;-72
2024/03/13 11:40:24;;;;;;;7.78;1.90;;;16.80;84.70;;;;;;5078413;28;20024;-73
2024/03/13 11:42:50;;;;;;;9.35;2.28;;;16.40;85.60;;;;;;5074627;28;20119;-73
2024/03/13 11:45:19;;;;;;;7.00;1.90;;;16.10;87.90;;;;;;5073730;28;20139;-73
2024/03/13 11:47:48;;;;;;;8.27;2.17;;;16.00;87.50;;;;;;5073578;28;20115;-72
2024/03/13 11:50:14;;;;;;;5.45;1.48;;;16.80;85.10;;;;;;5083641;28;20518;-73
2024/03/13 11:53:01;;;;;;;5.95;1.95;;;16.80;84.50;;;;;;5079795;28;20023;-73
2024/03/13 11:55:30;;;;;;;6.87;2.30;;;16.50;86.10;;;;;;5069770;28;20081;-73
2024/03/13 11:58:18;;;;;;;4.97;1.50;;;16.20;86.10;;;;;;5070649;28;20038;-73
2024/03/13 12:00:45;;;;;;;7.43;2.10;;;16.30;87.50;;;;;;5093308;28;20112;-73
2024/03/13 12:03:14;;;;;;;6.88;2.03;;;16.10;87.90;;;;;;5078133;28;20035;-73
2024/03/13 12:05:40;;;;;;;8.25;1.63;;;15.70;87.80;;;;;;5088096;28;20028;-73
2024/03/13 12:08:08;;;;;;;5.50;1.88;;;15.60;89.80;;;;;;5069610;28;20610;-74
2024/03/13 12:10:34;;;;;;;10.18;2.42;;;16.00;90.30;;;;;;5075915;28;20035;-73
2024/03/13 12:13:00;;;;;;;8.27;2.05;;;16.20;88.70;;;;;;5076154;28;20059;-73
2024/03/13 12:15:27;;;;;;;8.52;2.33;;;16.40;88.60;;;;;;5075452;28;20133;-73
2024/03/13 12:17:56;;;;;;;5.30;1.95;;;16.80;87.20;;;;;;5074037;28;20040;-74
2024/03/13 12:20:24;;;;;;;11.02;2.25;;;17.30;87.50;;;;;;5076757;28;20024;-73
2024/03/13 12:22:50;;;;;;;10.43;2.80;;;16.60;87.00;;;;;;5075530;28;20024;-73
2024/03/13 12:25:16;;;;;;;11.02;1.90;;;16.30;86.10;;;;;;5086029;28;20028;-73
2024/03/13 12:27:46;;;;;;;5.50;1.77;;;15.90;86.40;;;;;;5093203;28;20032;-73
2024/03/13 12:30:12;;;;;;;4.38;1.17;;;15.80;87.80;;;;;;5077876;28;20128;-73
2024/03/13 12:32:37;;;;;;;8.07;1.70;;;16.00;87.90;;;;;;5076680;28;20113;-73
2024/03/13 12:35:09;;;;;;;8.13;1.40;;;16.60;89.30;;;;;;5073809;28;20070;-74
2024/03/13 12:37:35;;;;;;;5.75;2.00;;;16.50;85.30;;;;;;5071613;28;20070;-74
2024/03/13 12:40:12;;;;;;;8.40;1.90;;;17.10;86.60;;;;;;5074494;28;20446;-74
2024/03/13 12:42:41;;;;;;;6.97;1.70;;;17.30;86.20;;;;;;5078560;28;20032;-74
2024/03/13 12:45:07;;;;;;;4.88;1.67;;;16.50;86.00;;;;;;5074972;28;20032;-74
2024/03/13 12:47:37;;;;;;;1.40;1.00;;;16.10;84.40;;;;;;5071307;28;20033;-73
2024/03/13 12:50:06;;;;;;;5.55;1.23;;;15.80;85.60;;;;;;5079555;28;20776;-73
2024/03/13 12:52:32;;;;;;;6.22;1.73;;;16.10;87.40;;;;;;5077459;28;20025;-74
2024/03/13 12:55:03;;;;;;;4.40;1.58;;;16.90;86.40;;;;;;5072240;28;20031;-74
2024/03/13 12:57:39;;;;;;;5.40;1.52;;;16.90;85.50;;;;;;5069881;28;20514;-74
2024/03/13 13:00:14;;;;;;;7.25;1.85;;;16.60;86.20;;;;;;5074739;28;20164;-74
2024/03/13 13:02:45;;;;;;;7.75;1.83;;;16.20;87.20;;;;;;5074704;28;20039;-73
2024/03/13 13:05:12;;;;;;;8.63;2.50;;;16.30;88.90;;;;;;5077796;28;20043;-74